Terminal Aerodrome Forecast
Issued by NWS

Home | Current Version | Previous Version | Text Only | Print | Product List | Glossary On
Versions: 1 2 3 4 5 6 7 8 9 10 11 12 13
000
FTUS45 KABQ 221200 AAA
TAFROW
TAF AMD
KROW 221254Z 2213/2312 VRB06KT P6SM BKN200
     FM221530 31013KT P6SM SCT150 BKN200
     FM221700 31020G31KT P6SM SCT120 BKN200
     FM230000 27015KT P6SM FEW050 SCT120
     FM230900 35026G34KT P6SM VCSH OVC025=

USA.gov is the U.S. government's official web portal to all federal, state and local government web resources and services.